Terminal Aerodrome Forecast
Issued by NWS Twin Cities, MN

Home | Current Version | Previous Version | Text Only | Print | Product List | Glossary On
Versions: 1 2 3 4 5 6 7 8 9 10 11 12 13 14 15 16 17 18 19 20 21
206
FTUS43 KMPX 301127
TAFEAU
TAF
KEAU 301127Z 3012/3112 26005KT P6SM SCT250
     FM301800 20009KT P6SM SCT120
     FM310200 15004KT P6SM VCSH OVC070
     FM310500 15005KT P6SM -SHRA OVC050
      TEMPO 3108/3112 2SM TSRA OVC035CB=

USA.gov is the U.S. government's official web portal to all federal, state and local government web resources and services.